sensor_id;sensor_type;location;lat;lon;timestamp;P1;durP1;ratioP1;P2;durP2;ratioP2
7074;SDS011;3578;51.568;6.932;2022-08-14T00:00:08;9.03;;;4.37;;
7074;SDS011;3578;51.568;6.932;2022-08-14T00:02:41;4.50;;;3.97;;
7074;SDS011;3578;51.568;6.932;2022-08-14T00:05:11;5.10;;;4.70;;
7074;SDS011;3578;51.568;6.932;2022-08-14T00:07:43;7.00;;;4.53;;
7074;SDS011;3578;51.568;6.932;2022-08-14T00:10:11;6.43;;;5.83;;
7074;SDS011;3578;51.568;6.932;2022-08-14T00:12:42;4.87;;;4.57;;
7074;SDS011;3578;51.568;6.932;2022-08-14T00:15:13;4.43;;;4.13;;
7074;SDS011;3578;51.568;6.932;2022-08-14T00:17:46;5.45;;;4.95;;
7074;SDS011;3578;51.568;6.932;2022-08-14T00:20:17;5.67;;;5.17;;
7074;SDS011;3578;51.568;6.932;2022-08-14T00:22:46;5.40;;;5.00;;
7074;SDS011;3578;51.568;6.932;2022-08-14T00:25:13;5.73;;;5.23;;
7074;SDS011;3578;51.568;6.932;2022-08-14T00:27:40;5.68;;;4.30;;
7074;SDS011;3578;51.568;6.932;2022-08-14T00:30:08;5.10;;;4.77;;
7074;SDS011;3578;51.568;6.932;2022-08-14T00:32:38;5.20;;;4.80;;
7074;SDS011;3578;51.568;6.932;2022-08-14T00:35:08;7.97;;;5.10;;
7074;SDS011;3578;51.568;6.932;2022-08-14T00:37:36;10.85;;;4.65;;
7074;SDS011;3578;51.568;6.932;2022-08-14T00:40:07;13.03;;;5.17;;
7074;SDS011;3578;51.568;6.932;2022-08-14T00:42:36;5.40;;;5.00;;
7074;SDS011;3578;51.568;6.932;2022-08-14T00:45:05;5.37;;;4.83;;
7074;SDS011;3578;51.568;6.932;2022-08-14T00:47:35;4.93;;;4.65;;
7074;SDS011;3578;51.568;6.932;2022-08-14T00:50:03;6.13;;;4.60;;
7074;SDS011;3578;51.568;6.932;2022-08-14T00:52:34;7.17;;;5.07;;
7074;SDS011;3578;51.568;6.932;2022-08-14T00:55:02;8.23;;;5.10;;
7074;SDS011;3578;51.568;6.932;2022-08-14T00:57:32;5.10;;;4.70;;
7074;SDS011;3578;51.568;6.932;2022-08-14T01:00:04;6.30;;;5.40;;
7074;SDS011;3578;51.568;6.932;2022-08-14T01:02:35;5.97;;;5.47;;
7074;SDS011;3578;51.568;6.932;2022-08-14T01:05:03;7.00;;;5.60;;
7074;SDS011;3578;51.568;6.932;2022-08-14T01:07:32;6.00;;;5.15;;
7074;SDS011;3578;51.568;6.932;2022-08-14T01:10:02;6.20;;;5.70;;
7074;SDS011;3578;51.568;6.932;2022-08-14T01:12:31;8.70;;;5.97;;
7074;SDS011;3578;51.568;6.932;2022-08-14T01:14:59;6.27;;;5.77;;
7074;SDS011;3578;51.568;6.932;2022-08-14T01:17:29;6.10;;;5.60;;
7074;SDS011;3578;51.568;6.932;2022-08-14T01:20:11;5.80;;;5.40;;
7074;SDS011;3578;51.568;6.932;2022-08-14T01:22:58;6.30;;;5.80;;
7074;SDS011;3578;51.568;6.932;2022-08-14T01:25:26;6.05;;;5.55;;
7074;SDS011;3578;51.568;6.932;2022-08-14T01:27:53;6.10;;;5.60;;
7074;SDS011;3578;51.568;6.932;2022-08-14T01:30:22;6.75;;;5.85;;
7074;SDS011;3578;51.568;6.932;2022-08-14T01:32:51;6.13;;;5.63;;
7074;SDS011;3578;51.568;6.932;2022-08-14T01:35:18;6.53;;;6.00;;
7074;SDS011;3578;51.568;6.932;2022-08-14T01:37:45;7.20;;;6.47;;
7074;SDS011;3578;51.568;6.932;2022-08-14T01:40:15;6.90;;;6.40;;
7074;SDS011;3578;51.568;6.932;2022-08-14T01:42:42;10.10;;;6.30;;
7074;SDS011;3578;51.568;6.932;2022-08-14T01:45:10;6.53;;;6.10;;
7074;SDS011;3578;51.568;6.932;2022-08-14T01:47:38;6.93;;;6.43;;
7074;SDS011;3578;51.568;6.932;2022-08-14T01:50:06;7.13;;;6.50;;
7074;SDS011;3578;51.568;6.932;2022-08-14T01:52:35;9.20;;;6.63;;
7074;SDS011;3578;51.568;6.932;2022-08-14T01:55:03;6.93;;;6.33;;
7074;SDS011;3578;51.568;6.932;2022-08-14T01:57:35;7.27;;;6.60;;
7074;SDS011;3578;51.568;6.932;2022-08-14T02:00:03;7.40;;;6.90;;
7074;SDS011;3578;51.568;6.932;2022-08-14T02:02:31;12.23;;;7.20;;
7074;SDS011;3578;51.568;6.932;2022-08-14T02:04:59;7.60;;;7.00;;
7074;SDS011;3578;51.568;6.932;2022-08-14T02:07:26;8.40;;;7.60;;
7074;SDS011;3578;51.568;6.932;2022-08-14T02:09:56;8.60;;;7.82;;
7074;SDS011;3578;51.568;6.932;2022-08-14T02:12:23;7.57;;;6.87;;
7074;SDS011;3578;51.568;6.932;2022-08-14T02:14:51;10.40;;;7.10;;
7074;SDS011;3578;51.568;6.932;2022-08-14T02:17:19;7.83;;;7.17;;
7074;SDS011;3578;51.568;6.932;2022-08-14T02:19:47;8.10;;;7.50;;
7074;SDS011;3578;51.568;6.932;2022-08-14T02:22:15;9.00;;;8.20;;
7074;SDS011;3578;51.568;6.932;2022-08-14T02:24:43;8.07;;;7.37;;
7074;SDS011;3578;51.568;6.932;2022-08-14T02:27:10;7.13;;;6.63;;
7074;SDS011;3578;51.568;6.932;2022-08-14T02:29:37;7.53;;;6.93;;
7074;SDS011;3578;51.568;6.932;2022-08-14T02:32:07;7.88;;;7.28;;
7074;SDS011;3578;51.568;6.932;2022-08-14T02:34:34;7.15;;;6.63;;
7074;SDS011;3578;51.568;6.932;2022-08-14T02:37:03;7.63;;;7.03;;
7074;SDS011;3578;51.568;6.932;2022-08-14T02:39:34;8.20;;;7.60;;
7074;SDS011;3578;51.568;6.932;2022-08-14T02:42:05;7.83;;;7.20;;
7074;SDS011;3578;51.568;6.932;2022-08-14T02:44:34;7.53;;;6.93;;
7074;SDS011;3578;51.568;6.932;2022-08-14T02:47:03;10.53;;;8.23;;
7074;SDS011;3578;51.568;6.932;2022-08-14T02:49:34;8.00;;;7.20;;
7074;SDS011;3578;51.568;6.932;2022-08-14T02:52:02;9.25;;;8.35;;
7074;SDS011;3578;51.568;6.932;2022-08-14T02:54:32;8.43;;;7.67;;
7074;SDS011;3578;51.568;6.932;2022-08-14T02:57:00;9.03;;;8.17;;
7074;SDS011;3578;51.568;6.932;2022-08-14T02:59:30;8.13;;;7.43;;
7074;SDS011;3578;51.568;6.932;2022-08-14T03:01:59;11.10;;;7.17;;
7074;SDS011;3578;51.568;6.932;2022-08-14T03:04:27;8.13;;;7.40;;
7074;SDS011;3578;51.568;6.932;2022-08-14T03:06:55;8.70;;;7.95;;
7074;SDS011;3578;51.568;6.932;2022-08-14T03:09:23;8.50;;;7.73;;
7074;SDS011;3578;51.568;6.932;2022-08-14T03:11:51;8.30;;;7.60;;
7074;SDS011;3578;51.568;6.932;2022-08-14T03:14:18;8.43;;;7.83;;
7074;SDS011;3578;51.568;6.932;2022-08-14T03:16:47;9.17;;;8.37;;
7074;SDS011;3578;51.568;6.932;2022-08-14T03:19:15;9.50;;;8.43;;
7074;SDS011;3578;51.568;6.932;2022-08-14T03:21:42;9.07;;;8.27;;
7074;SDS011;3578;51.568;6.932;2022-08-14T03:24:11;9.00;;;8.10;;
7074;SDS011;3578;51.568;6.932;2022-08-14T03:26:39;9.70;;;8.40;;
7074;SDS011;3578;51.568;6.932;2022-08-14T03:29:08;8.90;;;7.90;;
7074;SDS011;3578;51.568;6.932;2022-08-14T03:31:40;8.57;;;7.67;;
7074;SDS011;3578;51.568;6.932;2022-08-14T03:34:07;8.03;;;7.43;;
7074;SDS011;3578;51.568;6.932;2022-08-14T03:36:37;11.20;;;8.40;;
7074;SDS011;3578;51.568;6.932;2022-08-14T03:39:07;9.20;;;8.38;;
7074;SDS011;3578;51.568;6.932;2022-08-14T03:41:38;9.90;;;7.90;;
7074;SDS011;3578;51.568;6.932;2022-08-14T03:44:05;9.70;;;8.80;;
7074;SDS011;3578;51.568;6.932;2022-08-14T03:46:33;9.10;;;8.30;;
7074;SDS011;3578;51.568;6.932;2022-08-14T03:49:02;9.33;;;8.43;;
7074;SDS011;3578;51.568;6.932;2022-08-14T03:51:31;9.10;;;8.30;;
7074;SDS011;3578;51.568;6.932;2022-08-14T03:54:00;9.27;;;8.50;;
7074;SDS011;3578;51.568;6.932;2022-08-14T03:56:32;9.00;;;8.20;;
7074;SDS011;3578;51.568;6.932;2022-08-14T03:59:03;9.77;;;8.80;;
7074;SDS011;3578;51.568;6.932;2022-08-14T04:01:36;10.37;;;9.57;;
7074;SDS011;3578;51.568;6.932;2022-08-14T04:04:05;12.30;;;11.20;;
7074;SDS011;3578;51.568;6.932;2022-08-14T04:06:34;12.30;;;10.10;;
7074;SDS011;3578;51.568;6.932;2022-08-14T04:09:03;11.07;;;9.90;;
7074;SDS011;3578;51.568;6.932;2022-08-14T04:11:32;10.75;;;9.65;;
7074;SDS011;3578;51.568;6.932;2022-08-14T04:13:59;12.97;;;9.23;;
7074;SDS011;3578;51.568;6.932;2022-08-14T04:16:29;8.27;;;7.67;;
7074;SDS011;3578;51.568;6.932;2022-08-14T04:18:57;13.30;;;9.18;;
7074;SDS011;3578;51.568;6.932;2022-08-14T04:21:28;9.50;;;8.67;;
7074;SDS011;3578;51.568;6.932;2022-08-14T04:23:57;9.87;;;8.97;;
7074;SDS011;3578;51.568;6.932;2022-08-14T04:26:27;9.93;;;8.60;;
7074;SDS011;3578;51.568;6.932;2022-08-14T04:28:55;10.40;;;9.23;;
7074;SDS011;3578;51.568;6.932;2022-08-14T04:31:23;12.87;;;8.50;;
7074;SDS011;3578;51.568;6.932;2022-08-14T04:33:52;10.00;;;9.10;;
7074;SDS011;3578;51.568;6.932;2022-08-14T04:36:19;9.97;;;9.17;;
7074;SDS011;3578;51.568;6.932;2022-08-14T04:38:46;11.20;;;10.10;;
7074;SDS011;3578;51.568;6.932;2022-08-14T04:41:31;11.40;;;9.47;;
7074;SDS011;3578;51.568;6.932;2022-08-14T04:44:16;10.00;;;9.10;;
7074;SDS011;3578;51.568;6.932;2022-08-14T04:46:43;10.60;;;9.70;;
7074;SDS011;3578;51.568;6.932;2022-08-14T04:49:32;21.02;;;9.38;;
7074;SDS011;3578;51.568;6.932;2022-08-14T04:52:00;10.67;;;9.70;;
7074;SDS011;3578;51.568;6.932;2022-08-14T04:54:28;10.30;;;9.30;;
7074;SDS011;3578;51.568;6.932;2022-08-14T04:56:56;10.30;;;9.30;;
7074;SDS011;3578;51.568;6.932;2022-08-14T04:59:23;10.93;;;9.87;;
7074;SDS011;3578;51.568;6.932;2022-08-14T05:01:50;11.33;;;9.33;;
7074;SDS011;3578;51.568;6.932;2022-08-14T05:04:18;10.40;;;9.50;;
7074;SDS011;3578;51.568;6.932;2022-08-14T05:06:50;11.93;;;10.93;;
7074;SDS011;3578;51.568;6.932;2022-08-14T05:09:18;12.60;;;10.63;;
7074;SDS011;3578;51.568;6.932;2022-08-14T05:11:45;10.80;;;9.80;;
7074;SDS011;3578;51.568;6.932;2022-08-14T05:14:14;10.63;;;9.63;;
7074;SDS011;3578;51.568;6.932;2022-08-14T05:16:42;10.83;;;9.83;;
7074;SDS011;3578;51.568;6.932;2022-08-14T05:19:10;11.00;;;9.40;;
7074;SDS011;3578;51.568;6.932;2022-08-14T05:21:38;10.87;;;9.80;;
7074;SDS011;3578;51.568;6.932;2022-08-14T05:24:07;10.87;;;9.83;;
7074;SDS011;3578;51.568;6.932;2022-08-14T05:26:36;11.47;;;10.37;;
7074;SDS011;3578;51.568;6.932;2022-08-14T05:29:05;12.63;;;11.33;;
7074;SDS011;3578;51.568;6.932;2022-08-14T05:31:34;12.67;;;10.33;;
7074;SDS011;3578;51.568;6.932;2022-08-14T05:34:02;10.35;;;9.35;;
7074;SDS011;3578;51.568;6.932;2022-08-14T05:36:29;10.20;;;9.20;;
7074;SDS011;3578;51.568;6.932;2022-08-14T05:38:57;10.37;;;9.40;;
7074;SDS011;3578;51.568;6.932;2022-08-14T05:41:25;14.90;;;9.80;;
7074;SDS011;3578;51.568;6.932;2022-08-14T05:43:52;10.87;;;9.97;;
7074;SDS011;3578;51.568;6.932;2022-08-14T05:46:19;12.33;;;10.00;;
7074;SDS011;3578;51.568;6.932;2022-08-14T05:48:46;12.30;;;9.67;;
7074;SDS011;3578;51.568;6.932;2022-08-14T05:51:14;10.03;;;9.00;;
7074;SDS011;3578;51.568;6.932;2022-08-14T05:53:41;11.23;;;9.03;;
7074;SDS011;3578;51.568;6.932;2022-08-14T05:56:08;11.30;;;9.60;;
7074;SDS011;3578;51.568;6.932;2022-08-14T05:58:37;10.17;;;9.00;;
7074;SDS011;3578;51.568;6.932;2022-08-14T06:01:04;10.27;;;9.17;;
7074;SDS011;3578;51.568;6.932;2022-08-14T06:03:33;10.10;;;9.27;;
7074;SDS011;3578;51.568;6.932;2022-08-14T06:06:00;14.47;;;9.70;;
7074;SDS011;3578;51.568;6.932;2022-08-14T06:08:28;10.23;;;9.10;;
7074;SDS011;3578;51.568;6.932;2022-08-14T06:10:57;15.47;;;8.97;;
7074;SDS011;3578;51.568;6.932;2022-08-14T06:13:27;10.40;;;9.27;;
7074;SDS011;3578;51.568;6.932;2022-08-14T06:15:56;11.00;;;9.80;;
7074;SDS011;3578;51.568;6.932;2022-08-14T06:18:24;13.93;;;10.13;;
7074;SDS011;3578;51.568;6.932;2022-08-14T06:20:51;11.10;;;10.00;;
7074;SDS011;3578;51.568;6.932;2022-08-14T06:23:19;9.37;;;8.57;;
7074;SDS011;3578;51.568;6.932;2022-08-14T06:25:46;9.90;;;9.10;;
7074;SDS011;3578;51.568;6.932;2022-08-14T06:28:16;10.33;;;9.47;;
7074;SDS011;3578;51.568;6.932;2022-08-14T06:30:45;14.20;;;11.40;;
7074;SDS011;3578;51.568;6.932;2022-08-14T06:33:15;13.37;;;12.07;;
7074;SDS011;3578;51.568;6.932;2022-08-14T06:35:44;13.43;;;11.17;;
7074;SDS011;3578;51.568;6.932;2022-08-14T06:38:14;12.93;;;10.38;;
7074;SDS011;3578;51.568;6.932;2022-08-14T06:40:42;11.60;;;10.50;;
7074;SDS011;3578;51.568;6.932;2022-08-14T06:43:10;12.17;;;10.73;;
7074;SDS011;3578;51.568;6.932;2022-08-14T06:45:39;12.43;;;11.13;;
7074;SDS011;3578;51.568;6.932;2022-08-14T06:48:15;11.50;;;10.50;;
7074;SDS011;3578;51.568;6.932;2022-08-14T06:50:44;10.93;;;9.73;;
7074;SDS011;3578;51.568;6.932;2022-08-14T06:53:11;14.53;;;10.37;;
7074;SDS011;3578;51.568;6.932;2022-08-14T06:55:40;11.87;;;9.90;;
7074;SDS011;3578;51.568;6.932;2022-08-14T06:58:09;10.00;;;9.10;;
7074;SDS011;3578;51.568;6.932;2022-08-14T07:00:37;9.60;;;8.60;;
7074;SDS011;3578;51.568;6.932;2022-08-14T07:03:27;10.80;;;8.77;;
7074;SDS011;3578;51.568;6.932;2022-08-14T07:06:11;9.90;;;8.90;;
7074;SDS011;3578;51.568;6.932;2022-08-14T07:08:39;10.80;;;9.90;;
7074;SDS011;3578;51.568;6.932;2022-08-14T07:11:07;11.90;;;9.73;;
7074;SDS011;3578;51.568;6.932;2022-08-14T07:13:36;11.23;;;10.23;;
7074;SDS011;3578;51.568;6.932;2022-08-14T07:16:03;11.43;;;9.53;;
7074;SDS011;3578;51.568;6.932;2022-08-14T07:18:33;9.43;;;8.57;;
7074;SDS011;3578;51.568;6.932;2022-08-14T07:21:01;10.10;;;8.10;;
7074;SDS011;3578;51.568;6.932;2022-08-14T07:23:31;9.97;;;8.80;;
7074;SDS011;3578;51.568;6.932;2022-08-14T07:25:59;10.80;;;8.30;;
7074;SDS011;3578;51.568;6.932;2022-08-14T07:28:28;11.70;;;8.30;;
7074;SDS011;3578;51.568;6.932;2022-08-14T07:30:59;10.83;;;8.57;;
7074;SDS011;3578;51.568;6.932;2022-08-14T07:33:30;8.17;;;7.37;;
7074;SDS011;3578;51.568;6.932;2022-08-14T07:36:04;8.60;;;7.50;;
7074;SDS011;3578;51.568;6.932;2022-08-14T07:38:34;13.70;;;8.30;;
7074;SDS011;3578;51.568;6.932;2022-08-14T07:41:02;9.30;;;8.43;;
7074;SDS011;3578;51.568;6.932;2022-08-14T07:43:33;10.70;;;8.20;;
7074;SDS011;3578;51.568;6.932;2022-08-14T07:46:00;10.00;;;9.20;;
7074;SDS011;3578;51.568;6.932;2022-08-14T07:48:27;9.05;;;8.20;;
7074;SDS011;3578;51.568;6.932;2022-08-14T07:50:56;9.23;;;8.32;;
7074;SDS011;3578;51.568;6.932;2022-08-14T07:53:24;7.60;;;7.00;;
7074;SDS011;3578;51.568;6.932;2022-08-14T07:55:51;9.57;;;7.90;;
7074;SDS011;3578;51.568;6.932;2022-08-14T07:58:18;9.60;;;7.50;;
7074;SDS011;3578;51.568;6.932;2022-08-14T08:00:45;14.53;;;7.03;;
7074;SDS011;3578;51.568;6.932;2022-08-14T08:03:12;8.00;;;7.30;;
7074;SDS011;3578;51.568;6.932;2022-08-14T08:05:40;15.73;;;7.83;;
7074;SDS011;3578;51.568;6.932;2022-08-14T08:08:08;7.67;;;6.73;;
7074;SDS011;3578;51.568;6.932;2022-08-14T08:10:37;10.00;;;7.63;;
7074;SDS011;3578;51.568;6.932;2022-08-14T08:13:07;8.43;;;7.63;;
7074;SDS011;3578;51.568;6.932;2022-08-14T08:15:37;7.20;;;6.43;;
7074;SDS011;3578;51.568;6.932;2022-08-14T08:18:06;8.67;;;7.27;;
7074;SDS011;3578;51.568;6.932;2022-08-14T08:20:36;8.03;;;6.70;;
7074;SDS011;3578;51.568;6.932;2022-08-14T08:23:06;8.20;;;7.40;;
7074;SDS011;3578;51.568;6.932;2022-08-14T08:25:35;11.10;;;6.67;;
7074;SDS011;3578;51.568;6.932;2022-08-14T08:28:04;7.13;;;6.50;;
7074;SDS011;3578;51.568;6.932;2022-08-14T08:30:35;10.43;;;7.60;;
7074;SDS011;3578;51.568;6.932;2022-08-14T08:33:05;7.10;;;6.60;;
7074;SDS011;3578;51.568;6.932;2022-08-14T08:35:35;10.10;;;7.70;;
7074;SDS011;3578;51.568;6.932;2022-08-14T08:38:04;7.10;;;6.60;;
7074;SDS011;3578;51.568;6.932;2022-08-14T08:40:35;12.33;;;7.07;;
7074;SDS011;3578;51.568;6.932;2022-08-14T08:43:05;7.70;;;7.00;;
7074;SDS011;3578;51.568;6.932;2022-08-14T08:45:35;8.23;;;7.47;;
7074;SDS011;3578;51.568;6.932;2022-08-14T08:48:02;8.77;;;8.07;;
7074;SDS011;3578;51.568;6.932;2022-08-14T08:50:32;7.73;;;7.00;;
7074;SDS011;3578;51.568;6.932;2022-08-14T08:53:03;9.00;;;8.20;;
7074;SDS011;3578;51.568;6.932;2022-08-14T08:55:32;10.03;;;6.00;;
7074;SDS011;3578;51.568;6.932;2022-08-14T08:58:05;21.05;;;7.63;;
7074;SDS011;3578;51.568;6.932;2022-08-14T09:00:35;8.50;;;6.93;;
7074;SDS011;3578;51.568;6.932;2022-08-14T09:03:07;11.27;;;7.20;;
7074;SDS011;3578;51.568;6.932;2022-08-14T09:05:37;6.93;;;6.37;;
7074;SDS011;3578;51.568;6.932;2022-08-14T09:08:19;7.43;;;6.80;;
7074;SDS011;3578;51.568;6.932;2022-08-14T09:10:50;7.77;;;6.97;;
7074;SDS011;3578;51.568;6.932;2022-08-14T09:13:19;7.70;;;6.53;;
7074;SDS011;3578;51.568;6.932;2022-08-14T09:15:50;42.20;;;8.10;;
7074;SDS011;3578;51.568;6.932;2022-08-14T09:18:20;7.87;;;6.57;;
7074;SDS011;3578;51.568;6.932;2022-08-14T09:20:50;8.93;;;6.22;;
7074;SDS011;3578;51.568;6.932;2022-08-14T09:23:19;51.67;;;8.33;;
7074;SDS011;3578;51.568;6.932;2022-08-14T09:25:47;55.13;;;10.07;;
7074;SDS011;3578;51.568;6.932;2022-08-14T09:28:18;13.17;;;7.30;;
7074;SDS011;3578;51.568;6.932;2022-08-14T09:30:48;7.10;;;5.87;;
7074;SDS011;3578;51.568;6.932;2022-08-14T09:36:18;9.70;;;6.03;;
7074;SDS011;3578;51.568;6.932;2022-08-14T09:39:34;6.00;;;5.50;;
7074;SDS011;3578;51.568;6.932;2022-08-14T09:42:19;6.40;;;5.80;;
7074;SDS011;3578;51.568;6.932;2022-08-14T09:45:05;5.50;;;5.03;;
7074;SDS011;3578;51.568;6.932;2022-08-14T09:47:40;13.43;;;6.97;;
7074;SDS011;3578;51.568;6.932;2022-08-14T09:50:17;5.57;;;5.00;;
7074;SDS011;3578;51.568;6.932;2022-08-14T09:52:52;26.57;;;5.50;;
7074;SDS011;3578;51.568;6.932;2022-08-14T09:55:24;14.20;;;5.70;;
7074;SDS011;3578;51.568;6.932;2022-08-14T09:58:03;6.63;;;4.93;;
7074;SDS011;3578;51.568;6.932;2022-08-14T10:00:41;24.23;;;5.30;;
7074;SDS011;3578;51.568;6.932;2022-08-14T10:03:11;13.10;;;4.90;;
7074;SDS011;3578;51.568;6.932;2022-08-14T10:05:49;5.40;;;5.03;;
7074;SDS011;3578;51.568;6.932;2022-08-14T10:08:17;23.30;;;6.53;;
7074;SDS011;3578;51.568;6.932;2022-08-14T10:10:46;6.10;;;5.50;;
7074;SDS011;3578;51.568;6.932;2022-08-14T10:13:21;5.30;;;4.90;;
7074;SDS011;3578;51.568;6.932;2022-08-14T10:15:56;6.87;;;4.60;;
7074;SDS011;3578;51.568;6.932;2022-08-14T10:18:25;6.10;;;5.47;;
7074;SDS011;3578;51.568;6.932;2022-08-14T10:20:54;7.03;;;5.23;;
7074;SDS011;3578;51.568;6.932;2022-08-14T10:23:25;5.33;;;5.03;;
7074;SDS011;3578;51.568;6.932;2022-08-14T10:26:04;5.83;;;4.77;;
7074;SDS011;3578;51.568;6.932;2022-08-14T10:28:38;6.23;;;5.73;;
7074;SDS011;3578;51.568;6.932;2022-08-14T10:31:21;5.27;;;4.87;;
7074;SDS011;3578;51.568;6.932;2022-08-14T10:33:57;14.57;;;5.07;;
7074;SDS011;3578;51.568;6.932;2022-08-14T10:36:27;6.23;;;4.73;;
7074;SDS011;3578;51.568;6.932;2022-08-14T10:38:57;5.37;;;4.97;;
7074;SDS011;3578;51.568;6.932;2022-08-14T10:41:37;4.83;;;4.40;;
7074;SDS011;3578;51.568;6.932;2022-08-14T10:44:08;5.10;;;4.60;;
7074;SDS011;3578;51.568;6.932;2022-08-14T10:46:41;5.50;;;5.07;;
7074;SDS011;3578;51.568;6.932;2022-08-14T10:49:18;8.90;;;5.47;;
7074;SDS011;3578;51.568;6.932;2022-08-14T10:51:57;5.30;;;5.00;;
7074;SDS011;3578;51.568;6.932;2022-08-14T10:54:36;5.90;;;4.97;;
7074;SDS011;3578;51.568;6.932;2022-08-14T10:57:12;4.90;;;4.70;;
7074;SDS011;3578;51.568;6.932;2022-08-14T10:59:46;5.57;;;4.77;;
7074;SDS011;3578;51.568;6.932;2022-08-14T11:02:17;5.97;;;5.05;;
7074;SDS011;3578;51.568;6.932;2022-08-14T11:04:59;6.73;;;5.83;;
7074;SDS011;3578;51.568;6.932;2022-08-14T11:07:32;5.40;;;4.90;;
7074;SDS011;3578;51.568;6.932;2022-08-14T11:10:03;5.57;;;5.17;;
7074;SDS011;3578;51.568;6.932;2022-08-14T11:12:41;5.43;;;4.70;;
7074;SDS011;3578;51.568;6.932;2022-08-14T11:15:13;5.43;;;4.63;;
7074;SDS011;3578;51.568;6.932;2022-08-14T11:17:43;5.50;;;4.80;;
7074;SDS011;3578;51.568;6.932;2022-08-14T11:20:11;8.10;;;4.77;;
7074;SDS011;3578;51.568;6.932;2022-08-14T11:22:40;4.80;;;4.60;;
7074;SDS011;3578;51.568;6.932;2022-08-14T11:25:09;7.30;;;4.90;;
7074;SDS011;3578;51.568;6.932;2022-08-14T11:27:38;6.77;;;5.87;;
7074;SDS011;3578;51.568;6.932;2022-08-14T11:30:08;6.00;;;5.50;;
7074;SDS011;3578;51.568;6.932;2022-08-14T11:32:40;5.40;;;5.00;;
7074;SDS011;3578;51.568;6.932;2022-08-14T11:35:12;5.27;;;4.77;;
7074;SDS011;3578;51.568;6.932;2022-08-14T11:37:49;6.90;;;5.00;;
7074;SDS011;3578;51.568;6.932;2022-08-14T11:40:17;6.70;;;5.30;;
7074;SDS011;3578;51.568;6.932;2022-08-14T11:42:47;6.03;;;5.60;;
7074;SDS011;3578;51.568;6.932;2022-08-14T11:45:20;5.50;;;5.10;;
7074;SDS011;3578;51.568;6.932;2022-08-14T11:47:51;6.03;;;5.20;;
7074;SDS011;3578;51.568;6.932;2022-08-14T11:50:21;6.27;;;5.77;;
7074;SDS011;3578;51.568;6.932;2022-08-14T11:52:52;4.90;;;4.60;;
7074;SDS011;3578;51.568;6.932;2022-08-14T11:55:21;5.70;;;5.30;;
7074;SDS011;3578;51.568;6.932;2022-08-14T11:57:58;5.03;;;4.43;;
7074;SDS011;3578;51.568;6.932;2022-08-14T12:00:28;5.03;;;4.63;;
7074;SDS011;3578;51.568;6.932;2022-08-14T12:02:59;6.63;;;4.77;;
7074;SDS011;3578;51.568;6.932;2022-08-14T12:05:31;5.23;;;4.60;;
7074;SDS011;3578;51.568;6.932;2022-08-14T12:07:59;5.37;;;3.90;;
7074;SDS011;3578;51.568;6.932;2022-08-14T12:10:30;4.87;;;4.60;;
7074;SDS011;3578;51.568;6.932;2022-08-14T12:12:58;5.40;;;4.90;;
7074;SDS011;3578;51.568;6.932;2022-08-14T12:15:36;4.78;;;4.40;;
7074;SDS011;3578;51.568;6.932;2022-08-14T12:18:04;4.33;;;4.13;;
7074;SDS011;3578;51.568;6.932;2022-08-14T12:20:32;4.87;;;4.57;;
7074;SDS011;3578;51.568;6.932;2022-08-14T12:23:01;4.47;;;4.10;;
7074;SDS011;3578;51.568;6.932;2022-08-14T12:25:31;5.30;;;5.00;;
7074;SDS011;3578;51.568;6.932;2022-08-14T12:28:00;7.10;;;5.27;;
7074;SDS011;3578;51.568;6.932;2022-08-14T12:30:35;5.80;;;5.10;;
7074;SDS011;3578;51.568;6.932;2022-08-14T12:33:21;5.80;;;5.30;;
7074;SDS011;3578;51.568;6.932;2022-08-14T12:35:51;5.50;;;5.10;;
7074;SDS011;3578;51.568;6.932;2022-08-14T12:38:30;6.10;;;5.60;;
7074;SDS011;3578;51.568;6.932;2022-08-14T12:41:02;5.27;;;4.80;;
7074;SDS011;3578;51.568;6.932;2022-08-14T12:43:43;6.90;;;5.38;;
7074;SDS011;3578;51.568;6.932;2022-08-14T12:46:19;5.17;;;4.87;;
7074;SDS011;3578;51.568;6.932;2022-08-14T12:48:49;4.67;;;4.47;;
7074;SDS011;3578;51.568;6.932;2022-08-14T12:51:17;5.50;;;5.10;;
7074;SDS011;3578;51.568;6.932;2022-08-14T12:53:45;5.27;;;4.77;;
7074;SDS011;3578;51.568;6.932;2022-08-14T12:56:15;4.83;;;4.53;;
7074;SDS011;3578;51.568;6.932;2022-08-14T12:58:46;5.27;;;4.80;;
7074;SDS011;3578;51.568;6.932;2022-08-14T13:01:18;5.13;;;4.73;;
7074;SDS011;3578;51.568;6.932;2022-08-14T13:03:47;5.70;;;5.20;;
7074;SDS011;3578;51.568;6.932;2022-08-14T13:06:16;5.30;;;4.80;;
7074;SDS011;3578;51.568;6.932;2022-08-14T13:08:47;5.30;;;4.90;;
7074;SDS011;3578;51.568;6.932;2022-08-14T13:11:15;5.63;;;5.07;;
7074;SDS011;3578;51.568;6.932;2022-08-14T13:13:42;5.50;;;5.00;;
7074;SDS011;3578;51.568;6.932;2022-08-14T13:16:11;5.13;;;4.82;;
7074;SDS011;3578;51.568;6.932;2022-08-14T13:18:41;6.03;;;5.43;;
7074;SDS011;3578;51.568;6.932;2022-08-14T13:21:12;4.97;;;4.53;;
7074;SDS011;3578;51.568;6.932;2022-08-14T13:23:40;8.10;;;5.10;;
7074;SDS011;3578;51.568;6.932;2022-08-14T13:26:09;6.97;;;4.70;;
7074;SDS011;3578;51.568;6.932;2022-08-14T13:28:38;5.03;;;4.77;;
7074;SDS011;3578;51.568;6.932;2022-08-14T13:31:07;5.23;;;4.83;;
7074;SDS011;3578;51.568;6.932;2022-08-14T13:33:38;10.93;;;4.57;;
7074;SDS011;3578;51.568;6.932;2022-08-14T13:36:06;8.07;;;5.40;;
7074;SDS011;3578;51.568;6.932;2022-08-14T13:38:36;4.73;;;4.33;;
7074;SDS011;3578;51.568;6.932;2022-08-14T13:41:06;5.10;;;4.70;;
7074;SDS011;3578;51.568;6.932;2022-08-14T13:43:35;5.80;;;5.23;;
7074;SDS011;3578;51.568;6.932;2022-08-14T13:46:03;8.30;;;5.30;;
7074;SDS011;3578;51.568;6.932;2022-08-14T13:48:31;4.70;;;4.40;;
7074;SDS011;3578;51.568;6.932;2022-08-14T13:50:58;16.27;;;5.60;;
7074;SDS011;3578;51.568;6.932;2022-08-14T13:53:28;20.67;;;5.67;;
7074;SDS011;3578;51.568;6.932;2022-08-14T13:56:00;5.57;;;5.17;;
7074;SDS011;3578;51.568;6.932;2022-08-14T13:58:28;5.70;;;5.20;;
7074;SDS011;3578;51.568;6.932;2022-08-14T14:01:01;5.33;;;4.83;;
7074;SDS011;3578;51.568;6.932;2022-08-14T14:03:32;5.70;;;5.30;;
7074;SDS011;3578;51.568;6.932;2022-08-14T14:06:02;5.33;;;4.93;;
7074;SDS011;3578;51.568;6.932;2022-08-14T14:08:31;6.73;;;4.70;;
7074;SDS011;3578;51.568;6.932;2022-08-14T14:11:03;5.43;;;5.07;;
7074;SDS011;3578;51.568;6.932;2022-08-14T14:13:30;5.70;;;5.10;;
7074;SDS011;3578;51.568;6.932;2022-08-14T14:15:57;5.90;;;5.30;;
7074;SDS011;3578;51.568;6.932;2022-08-14T14:18:28;6.53;;;5.03;;
7074;SDS011;3578;51.568;6.932;2022-08-14T14:20:56;5.00;;;4.70;;
7074;SDS011;3578;51.568;6.932;2022-08-14T14:23:24;4.93;;;4.63;;
7074;SDS011;3578;51.568;6.932;2022-08-14T14:25:52;5.27;;;4.87;;
7074;SDS011;3578;51.568;6.932;2022-08-14T14:28:22;8.70;;;4.97;;
7074;SDS011;3578;51.568;6.932;2022-08-14T14:30:56;5.27;;;4.87;;
7074;SDS011;3578;51.568;6.932;2022-08-14T14:33:23;6.03;;;5.33;;
7074;SDS011;3578;51.568;6.932;2022-08-14T14:35:51;8.00;;;5.50;;
7074;SDS011;3578;51.568;6.932;2022-08-14T14:38:19;11.70;;;5.43;;
7074;SDS011;3578;51.568;6.932;2022-08-14T14:40:50;11.80;;;4.60;;
7074;SDS011;3578;51.568;6.932;2022-08-14T14:43:17;4.80;;;4.50;;
7074;SDS011;3578;51.568;6.932;2022-08-14T14:45:46;4.53;;;4.32;;
7074;SDS011;3578;51.568;6.932;2022-08-14T14:48:14;4.27;;;4.07;;
7074;SDS011;3578;51.568;6.932;2022-08-14T14:50:44;4.37;;;4.17;;
7074;SDS011;3578;51.568;6.932;2022-08-14T14:53:15;4.43;;;4.23;;
7074;SDS011;3578;51.568;6.932;2022-08-14T14:55:43;4.27;;;4.07;;
7074;SDS011;3578;51.568;6.932;2022-08-14T14:58:10;4.43;;;3.93;;
7074;SDS011;3578;51.568;6.932;2022-08-14T15:00:40;4.40;;;4.10;;
7074;SDS011;3578;51.568;6.932;2022-08-14T15:03:10;4.43;;;4.13;;
7074;SDS011;3578;51.568;6.932;2022-08-14T15:05:37;5.33;;;4.77;;
7074;SDS011;3578;51.568;6.932;2022-08-14T15:08:05;4.77;;;4.47;;
7074;SDS011;3578;51.568;6.932;2022-08-14T15:10:33;7.10;;;5.30;;
7074;SDS011;3578;51.568;6.932;2022-08-14T15:13:00;4.73;;;4.33;;
7074;SDS011;3578;51.568;6.932;2022-08-14T15:15:27;4.60;;;4.20;;
7074;SDS011;3578;51.568;6.932;2022-08-14T15:17:54;6.30;;;4.80;;
7074;SDS011;3578;51.568;6.932;2022-08-14T15:20:23;5.07;;;4.67;;
7074;SDS011;3578;51.568;6.932;2022-08-14T15:22:50;5.27;;;4.77;;
7074;SDS011;3578;51.568;6.932;2022-08-14T15:25:17;5.23;;;4.83;;
7074;SDS011;3578;51.568;6.932;2022-08-14T15:27:44;5.27;;;4.87;;
7074;SDS011;3578;51.568;6.932;2022-08-14T15:30:15;5.20;;;4.90;;